createdAt,value
2022-12-08T00:03:30.374Z,-0.20
2022-12-08T00:12:44.833Z,-0.20
2022-12-08T00:17:52.679Z,-0.20
2022-12-08T00:22:00.228Z,-0.20
2022-12-08T00:26:06.134Z,-0.20
2022-12-08T00:31:00.386Z,-0.20
2022-12-08T00:35:07.183Z,-0.20
2022-12-08T00:39:11.095Z,-0.20
2022-12-08T00:43:16.823Z,-0.20
2022-12-08T00:47:24.505Z,-0.20
2022-12-08T00:51:27.141Z,-0.20
2022-12-08T00:55:29.135Z,-0.20
2022-12-08T00:59:31.157Z,-0.30
2022-12-08T01:03:33.195Z,-0.40
2022-12-08T01:08:08.088Z,-0.50
2022-12-08T01:12:24.316Z,-0.60
2022-12-08T01:21:14.535Z,-0.80
2022-12-08T01:25:16.540Z,-0.80
2022-12-08T01:29:18.601Z,-0.80
2022-12-08T01:33:26.210Z,-0.80
2022-12-08T01:37:29.516Z,-0.80
2022-12-08T01:41:59.660Z,-0.80
2022-12-08T01:46:01.765Z,-0.80
2022-12-08T01:50:08.321Z,-0.80
2022-12-08T01:54:12.768Z,-0.80
2022-12-08T02:03:45.763Z,-0.80
2022-12-08T02:07:51.871Z,-0.80
2022-12-08T02:12:45.254Z,-0.90
2022-12-08T02:18:04.224Z,-0.90
2022-12-08T02:22:59.358Z,-0.90
2022-12-08T02:27:49.275Z,-0.90
2022-12-08T02:32:25.265Z,-0.90
2022-12-08T02:36:44.186Z,-1.00
2022-12-08T02:41:40.144Z,-1.00
2022-12-08T02:46:17.246Z,-1.10
2022-12-08T02:50:19.808Z,-1.10
2022-12-08T02:54:25.829Z,-1.10
2022-12-08T02:59:10.294Z,-1.20
2022-12-08T03:03:29.187Z,-1.20
2022-12-08T03:07:43.937Z,-1.20
2022-12-08T03:12:09.824Z,-1.30
2022-12-08T03:16:15.374Z,-1.30
2022-12-08T03:20:22.463Z,-1.30
2022-12-08T03:24:24.499Z,-1.30
2022-12-08T03:28:26.544Z,-1.40
2022-12-08T03:32:41.314Z,-1.40
2022-12-08T03:36:47.011Z,-1.40
2022-12-08T03:41:20.399Z,-1.30
2022-12-08T03:45:22.527Z,-1.30
2022-12-08T03:49:24.494Z,-1.30
2022-12-08T03:53:53.624Z,-1.30
2022-12-08T03:58:09.255Z,-1.30
2022-12-08T04:02:11.281Z,-1.30
2022-12-08T04:06:13.644Z,-1.20
2022-12-08T04:10:41.320Z,-1.20
2022-12-08T04:14:43.612Z,-1.20
2022-12-08T04:18:45.995Z,-1.20
2022-12-08T04:22:51.871Z,-1.20
2022-12-08T04:27:59.346Z,-1.20
2022-12-08T04:32:20.357Z,-1.30
2022-12-08T04:37:35.507Z,-1.30
2022-12-08T04:42:02.707Z,-1.30
2022-12-08T04:46:16.359Z,-1.30
2022-12-08T04:50:45.148Z,-1.20
2022-12-08T04:54:54.442Z,-1.20
2022-12-08T04:58:56.496Z,-1.10
2022-12-08T05:02:58.674Z,-1.10
2022-12-08T05:07:00.830Z,-1.10
2022-12-08T05:11:24.746Z,-1.00
2022-12-08T05:15:28.239Z,-1.00
2022-12-08T05:19:30.213Z,-1.00
2022-12-08T05:23:32.749Z,-1.00
2022-12-08T05:27:43.581Z,-1.00
2022-12-08T05:31:45.839Z,-1.00
2022-12-08T05:36:01.429Z,-1.00
2022-12-08T05:40:06.776Z,-1.00
2022-12-08T05:44:09.065Z,-1.00
2022-12-08T05:48:11.255Z,-1.00
2022-12-08T05:52:13.295Z,-1.00
2022-12-08T05:56:16.059Z,-0.90
2022-12-08T06:00:18.772Z,-0.90
2022-12-08T06:04:20.772Z,-0.90
2022-12-08T06:08:38.162Z,-0.90
2022-12-08T06:12:40.661Z,-0.80
2022-12-08T06:16:43.006Z,-0.80
2022-12-08T06:21:08.064Z,-0.80
2022-12-08T06:25:10.806Z,-0.80
2022-12-08T06:29:19.054Z,-0.70
2022-12-08T06:34:23.351Z,-0.70
2022-12-08T06:38:28.231Z,-0.70
2022-12-08T06:42:49.606Z,-0.60
2022-12-08T06:47:43.093Z,-0.60
2022-12-08T06:51:49.695Z,-0.60
2022-12-08T06:56:10.038Z,-0.70
2022-12-08T07:00:12.859Z,-0.50
2022-12-08T07:04:15.404Z,-0.50
2022-12-08T07:08:17.793Z,-0.40
2022-12-08T07:12:20.218Z,-0.30
2022-12-08T07:16:23.025Z,-0.30
2022-12-08T07:20:25.217Z,-0.20
2022-12-08T07:24:27.656Z,-0.20
2022-12-08T07:28:35.457Z,-0.10
2022-12-08T07:32:51.941Z,-0.10
2022-12-08T07:36:53.977Z,0.00
2022-12-08T07:40:56.125Z,0.00
2022-12-08T07:44:58.602Z,0.10
2022-12-08T07:49:00.850Z,0.20
2022-12-08T07:53:02.913Z,0.20
2022-12-08T07:57:42.736Z,0.20
2022-12-08T08:02:06.557Z,0.20
2022-12-08T08:06:14.892Z,0.30
2022-12-08T08:10:17.357Z,0.40
2022-12-08T08:14:20.072Z,0.50
2022-12-08T08:19:26.413Z,0.60
2022-12-08T08:23:28.634Z,0.70
2022-12-08T08:27:39.018Z,0.80
2022-12-08T08:31:44.831Z,0.90
2022-12-08T08:36:08.835Z,1.10
2022-12-08T08:40:14.710Z,1.20
2022-12-08T08:44:17.831Z,1.40
2022-12-08T08:48:19.967Z,1.50
2022-12-08T08:52:25.001Z,1.50
2022-12-08T08:56:27.223Z,1.60
2022-12-08T09:00:30.266Z,1.80
2022-12-08T09:04:34.495Z,1.90
2022-12-08T09:08:59.677Z,2.00
2022-12-08T09:13:01.882Z,2.00
2022-12-08T09:17:03.931Z,2.10
2022-12-08T09:21:08.583Z,2.10
2022-12-08T09:25:10.596Z,2.20
2022-12-08T09:30:08.984Z,2.30
2022-12-08T09:34:12.063Z,2.50
2022-12-08T09:38:32.993Z,2.50
2022-12-08T09:43:02.181Z,2.60
2022-12-08T09:47:42.625Z,2.60
2022-12-08T09:51:48.834Z,2.70
2022-12-08T09:56:15.576Z,2.70
2022-12-08T10:00:18.321Z,2.90
2022-12-08T10:04:34.858Z,3.00
2022-12-08T10:08:47.703Z,2.70
2022-12-08T10:13:14.624Z,2.70
2022-12-08T10:17:23.315Z,2.60
2022-12-08T10:22:04.377Z,2.50
2022-12-08T10:26:33.455Z,2.30
2022-12-08T10:30:43.239Z,2.30
2022-12-08T10:35:14.418Z,2.30
2022-12-08T10:39:58.970Z,2.20
2022-12-08T10:44:09.962Z,2.20
2022-12-08T10:48:33.392Z,2.30
2022-12-08T10:52:42.802Z,2.60
2022-12-08T10:56:56.884Z,2.70
2022-12-08T11:01:24.132Z,2.90
2022-12-08T11:05:36.147Z,3.00
2022-12-08T11:09:52.489Z,3.10
2022-12-08T11:13:55.728Z,3.10
2022-12-08T11:18:23.450Z,3.20
2022-12-08T11:22:30.724Z,3.20
2022-12-08T11:26:38.040Z,3.30
2022-12-08T11:30:46.706Z,3.10
2022-12-08T11:34:58.457Z,2.90
2022-12-08T11:39:12.711Z,2.80
2022-12-08T11:43:21.470Z,2.70
2022-12-08T11:47:55.789Z,2.70
2022-12-08T11:52:48.086Z,2.90
2022-12-08T11:56:56.422Z,2.80
2022-12-08T12:01:04.258Z,2.80
2022-12-08T12:06:13.638Z,2.70
2022-12-08T12:10:45.991Z,2.60
2022-12-08T12:15:30.606Z,2.50
2022-12-08T12:19:41.828Z,2.60
2022-12-08T12:24:36.182Z,2.60
2022-12-08T12:29:04.244Z,2.50
2022-12-08T12:33:15.781Z,2.40
2022-12-08T12:37:23.871Z,2.40
2022-12-08T12:47:10.305Z,2.30
2022-12-08T12:51:49.657Z,2.20
2022-12-08T12:55:57.669Z,2.10
2022-12-08T12:59:59.805Z,2.10
2022-12-08T13:04:08.518Z,2.10
2022-12-08T13:08:26.119Z,1.90
2022-12-08T13:12:30.588Z,1.90
2022-12-08T13:16:37.134Z,1.90
2022-12-08T13:21:09.930Z,1.80
2022-12-08T13:25:39.947Z,1.80
2022-12-08T13:29:42.192Z,1.70
2022-12-08T13:33:45.545Z,1.70
2022-12-08T13:37:55.207Z,1.60
2022-12-08T13:42:02.824Z,1.50
2022-12-08T13:46:57.878Z,1.50
2022-12-08T13:56:51.395Z,1.40
2022-12-08T14:00:04.053Z,1.40
2022-12-08T14:04:47.962Z,1.30
2022-12-08T14:09:01.245Z,1.20
2022-12-08T14:13:11.305Z,1.20
2022-12-08T14:17:35.177Z,1.20
2022-12-08T14:21:37.116Z,1.20
2022-12-08T14:25:39.398Z,1.10
2022-12-08T14:29:52.300Z,1.00
2022-12-08T14:33:59.921Z,1.00
2022-12-08T14:38:19.827Z,0.90
2022-12-08T14:43:19.408Z,0.90
2022-12-08T14:47:22.509Z,0.80
2022-12-08T14:51:45.112Z,0.80
2022-12-08T14:55:52.705Z,0.70
2022-12-08T15:00:11.420Z,0.70
2022-12-08T15:04:21.428Z,0.60
2022-12-08T15:08:26.832Z,0.60
2022-12-08T15:12:31.950Z,0.50
2022-12-08T15:16:41.748Z,0.50
2022-12-08T15:21:06.258Z,0.40
2022-12-08T15:25:33.612Z,0.30
2022-12-08T15:29:40.976Z,0.40
2022-12-08T15:33:42.948Z,0.40
2022-12-08T15:37:45.156Z,0.60
2022-12-08T15:42:39.279Z,0.60
2022-12-08T15:47:19.254Z,0.50
2022-12-08T15:51:39.732Z,0.40
2022-12-08T16:05:53.792Z,0.50
2022-12-08T16:11:24.163Z,0.40
2022-12-08T16:19:37.791Z,0.40
2022-12-08T16:23:44.092Z,0.30
2022-12-08T16:28:52.092Z,0.30
2022-12-08T16:32:37.444Z,0.30
2022-12-08T16:36:39.596Z,0.30
2022-12-08T16:41:04.926Z,0.30
2022-12-08T16:45:32.123Z,0.30
2022-12-08T16:49:34.023Z,0.30
2022-12-08T16:53:35.862Z,0.30
2022-12-08T16:57:47.898Z,0.40
2022-12-08T17:01:50.996Z,0.40
2022-12-08T17:06:12.154Z,0.50
2022-12-08T17:10:19.995Z,0.50
2022-12-08T17:14:23.033Z,0.50
2022-12-08T17:18:25.201Z,0.50
2022-12-08T17:22:27.299Z,0.40
2022-12-08T17:26:29.391Z,0.40
2022-12-08T17:30:31.494Z,0.40
2022-12-08T17:34:42.122Z,0.40
2022-12-08T17:38:44.896Z,0.50
2022-12-08T17:42:47.727Z,0.50
2022-12-08T17:46:55.882Z,0.50
2022-12-08T17:50:57.849Z,0.50
2022-12-08T17:54:59.772Z,0.40
2022-12-08T17:59:03.880Z,0.40
2022-12-08T18:03:05.748Z,0.30
2022-12-08T18:07:07.839Z,0.30
2022-12-08T18:11:15.017Z,0.10
2022-12-08T18:15:20.073Z,0.10
2022-12-08T18:19:22.032Z,0.00
2022-12-08T18:24:24.296Z,0.00
2022-12-08T18:28:26.142Z,0.00
2022-12-08T18:32:32.251Z,0.00
2022-12-08T18:36:39.556Z,0.00
2022-12-08T18:40:42.841Z,-0.10
2022-12-08T18:45:13.483Z,-0.20
2022-12-08T18:49:26.476Z,-0.20
2022-12-08T18:53:29.030Z,-0.20
2022-12-08T18:57:30.955Z,-0.20
2022-12-08T19:01:37.312Z,-0.20
2022-12-08T19:05:48.828Z,-0.30
2022-12-08T19:10:16.226Z,-0.40
2022-12-08T19:14:34.105Z,-0.40
2022-12-08T19:18:36.257Z,-0.50
2022-12-08T19:22:38.127Z,-0.40
2022-12-08T19:26:40.530Z,-0.40
2022-12-08T19:30:42.605Z,-0.40
2022-12-08T19:34:44.609Z,-0.40
2022-12-08T19:39:06.836Z,-0.40
2022-12-08T19:43:40.419Z,-0.30
2022-12-08T19:52:52.122Z,-0.20
2022-12-08T20:01:31.876Z,-0.20
2022-12-08T20:05:37.063Z,-0.30
2022-12-08T20:09:38.921Z,-0.30
2022-12-08T20:18:11.720Z,-0.40
2022-12-08T20:22:13.701Z,-0.40
2022-12-08T20:26:17.711Z,-0.40
2022-12-08T20:30:19.557Z,-0.40
2022-12-08T20:34:21.380Z,-0.40
2022-12-08T20:38:23.197Z,-0.40
2022-12-08T20:42:25.082Z,-0.40
2022-12-08T20:46:28.098Z,-0.50
2022-12-08T20:50:30.873Z,-0.60
2022-12-08T20:54:35.741Z,-0.60
2022-12-08T20:58:37.625Z,-0.60
2022-12-08T21:03:09.570Z,-0.70
2022-12-08T21:07:12.680Z,-0.70
2022-12-08T21:11:18.385Z,-0.70
2022-12-08T21:15:20.453Z,-0.70
2022-12-08T21:19:23.007Z,-0.60
2022-12-08T21:23:45.378Z,-0.60
2022-12-08T21:27:47.801Z,-0.60
2022-12-08T21:32:08.561Z,-0.60
2022-12-08T21:36:18.825Z,-0.60
2022-12-08T21:40:25.096Z,-0.60
2022-12-08T21:44:28.416Z,-0.50
2022-12-08T21:48:30.497Z,-0.50
2022-12-08T21:52:40.245Z,-0.40
2022-12-08T21:56:48.306Z,-0.40
2022-12-08T22:00:51.049Z,-0.40
2022-12-08T22:04:53.583Z,-0.40
2022-12-08T22:08:57.122Z,-0.40
2022-12-08T22:13:01.779Z,-0.40
2022-12-08T22:17:03.883Z,-0.40
2022-12-08T22:21:17.285Z,-0.40
2022-12-08T22:25:19.580Z,-0.40
2022-12-08T22:29:22.183Z,-0.40
2022-12-08T22:33:25.112Z,-0.40
2022-12-08T22:37:27.448Z,-0.40
2022-12-08T22:41:29.421Z,-0.30
2022-12-08T22:45:31.415Z,-0.30
2022-12-08T22:49:35.370Z,-0.30
2022-12-08T22:54:34.061Z,-0.40
2022-12-08T22:58:36.637Z,-0.40
2022-12-08T23:02:39.500Z,-0.40
2022-12-08T23:06:44.132Z,-0.40
2022-12-08T23:10:51.232Z,-0.40
2022-12-08T23:14:53.126Z,-0.40
2022-12-08T23:18:56.060Z,-0.40
2022-12-08T23:23:01.376Z,-0.50
2022-12-08T23:27:03.359Z,-0.40
2022-12-08T23:31:09.371Z,-0.30
2022-12-08T23:35:11.436Z,-0.30
2022-12-08T23:39:13.636Z,-0.40
2022-12-08T23:43:15.518Z,-0.50
2022-12-08T23:47:21.585Z,-0.50
2022-12-08T23:51:23.485Z,-0.60
2022-12-08T23:56:16.834Z,-0.50
